ADDS METAR Data INFO
IDs: Format: Raw Decoded Include TAF

Data at: 1900 UTC 22 Sep 2017

METAR for:PADU (Dutch Harbor/Madsen, AK, US)
Text:PADU 221856Z 35010G25KT 270V050 8SM -RA OVC010 08/07 A2973 RMK AO2 PK WND 34029/1807 RAB11 SLP067 WND DIR 330V090 BLK WTR NE-E AND W-NW CS P0000 T00830067
Temperature: 8.3°C ( 47°F)
Dewpoint: 6.7°C ( 44°F) [RH = 90%]
Pressure (altimeter):29.73 inches Hg (1006.9 mb) [Sea level pressure: 1006.7 mb]
Winds:from the N (350 degrees) at 12 MPH (10 knots; 5.1 m/s) gusting to 29 MPH (25 knots; 12.9 m/s)
Visibility: 8 sm ( 13 km)
Ceiling:1000 feet AGL
Clouds: overcast cloud deck at 1000 feet AGL
Weather:-RA (light rain)
Text:PADU 221803Z 32009G16KT 7SM OVC010 08/07 A2972 RMK AO2 WND DIR 330V090 BLK WTR NE-E AND W-NW CS
Temperature: 8.0°C ( 46°F)
Dewpoint: 7.0°C ( 45°F) [RH = 93%]
Pressure (altimeter):29.72 inches Hg (1006.5 mb)
Winds:from the NW (320 degrees) at 10 MPH (9 knots; 4.6 m/s) gusting to 18 MPH (16 knots; 8.2 m/s)
Visibility: 7 sm ( 11 km)
Ceiling:1000 feet AGL
Clouds: overcast cloud deck at 1000 feet AGL
Text:PADU 221756Z 01008G19KT 340V120 8SM OVC010 08/07 A2972 RMK AO2 RAE09 SLP065 P0000 60017 T00830067 10083 20072 53009
Temperature: 8.3°C ( 47°F)
Dewpoint: 6.7°C ( 44°F) [RH = 90%]
Pressure (altimeter):29.72 inches Hg (1006.5 mb) [Sea level pressure: 1006.5 mb]
Winds:from the N (10 degrees) at 9 MPH (8 knots; 4.1 m/s) gusting to 22 MPH (19 knots; 9.8 m/s)
Visibility: 8 sm ( 13 km)
Ceiling:1000 feet AGL
Clouds: overcast cloud deck at 1000 feet AGL
Text:PADU 221656Z 35010G30KT 290V030 9SM -RA FEW008 OVC014 08/06 A2971 RMK AO2 PK WND 34030/1649 RAB50 SLP062 OBS PK WND 35034/1558 CS P0000 T00830056
Temperature: 8.3°C ( 47°F)
Dewpoint: 5.6°C ( 42°F) [RH = 83%]
Pressure (altimeter):29.71 inches Hg (1006.2 mb) [Sea level pressure: 1006.2 mb]
Winds:from the N (350 degrees) at 12 MPH (10 knots; 5.1 m/s) gusting to 34 MPH (30 knots; 15.4 m/s)
Visibility: 9 sm ( 14 km)
Ceiling:1400 feet AGL
Clouds: few clouds at 800 feet AGL, overcast cloud deck at 1400 feet AGL
Weather:-RA (light rain)
Text:PADU 221621Z 36010G28KT 320V170 10SM FEW008 OVC014 08/06 A2971 RMK AO2 PK WND 35028/1617 OBS PK WND 35034/1558 CS
Temperature: 8.0°C ( 46°F)
Dewpoint: 6.0°C ( 43°F) [RH = 87%]
Pressure (altimeter):29.71 inches Hg (1006.2 mb)
Winds:from the N (360 degrees) at 12 MPH (10 knots; 5.1 m/s) gusting to 32 MPH (28 knots; 14.4 m/s)
Visibility:10 or more sm (16+ km)
Ceiling:1400 feet AGL
Clouds: few clouds at 800 feet AGL, overcast cloud deck at 1400 feet AGL
Text:PADU 221559Z 34017G30KT 300V060 10SM SCT006 OVC014 08/06 A2970 RMK AO2 PK WND 34028/1559 OBS PK WND 35034/1558 CS
Temperature: 8.0°C ( 46°F)
Dewpoint: 6.0°C ( 43°F) [RH = 87%]
Pressure (altimeter):29.70 inches Hg (1005.8 mb)
Winds:from the NNW (340 degrees) at 20 MPH (17 knots; 8.7 m/s) gusting to 34 MPH (30 knots; 15.4 m/s)
Visibility:10 or more sm (16+ km)
Ceiling:1400 feet AGL
Clouds: scattered clouds at 600 feet AGL, overcast cloud deck at 1400 feet AGL
Text:PADU 221558Z 31012G30KT 260V020 10SM SCT006 OVC014 08/06 A2970 RMK AO2 PK WND 33026/1558 CS
Temperature: 8.0°C ( 46°F)
Dewpoint: 6.0°C ( 43°F) [RH = 87%]
Pressure (altimeter):29.70 inches Hg (1005.8 mb)
Winds:from the NW (310 degrees) at 14 MPH (12 knots; 6.2 m/s) gusting to 34 MPH (30 knots; 15.4 m/s)
Visibility:10 or more sm (16+ km)
Ceiling:1400 feet AGL
Clouds: scattered clouds at 600 feet AGL, overcast cloud deck at 1400 feet AGL
Text:PADU 221556Z VRB04G30KT 2 1/2SM HZ BKN006 OVC011 08/05 A2970 RMK AO2 PK WND 33030/1550 RAE44 SLP058 CS P0002 T00830050
Temperature: 8.3°C ( 47°F)
Dewpoint: 5.0°C ( 41°F) [RH = 80%]
Pressure (altimeter):29.70 inches Hg (1005.8 mb) [Sea level pressure: 1005.8 mb]
Winds:variable direction winds at 5 MPH (4 knots; 2.1 m/s) gusting to 34 MPH (30 knots; 15.4 m/s)
Visibility: 2.50 sm ( 4.02 km)
Ceiling:600 feet AGL
Clouds: broken clouds at 600 feet AGL, overcast cloud deck at 1100 feet AGL
Weather:HZ (haze)
Text:PADU 221509Z 33015G21KT 2 1/2SM -RA BR BKN006 OVC011 07/06 A2970 RMK AO2 CS P0001
Temperature: 7.0°C ( 45°F)
Dewpoint: 6.0°C ( 43°F) [RH = 93%]
Pressure (altimeter):29.70 inches Hg (1005.8 mb)
Winds:from the NNW (330 degrees) at 17 MPH (15 knots; 7.7 m/s) gusting to 24 MPH (21 knots; 10.8 m/s)
Visibility: 2.50 sm ( 4.02 km)
Ceiling:600 feet AGL
Clouds: broken clouds at 600 feet AGL, overcast cloud deck at 1100 feet AGL
Weather:-RA BR (light rain, mist)
Text:PADU 221457Z 34018G24KT 3SM -RA BR BKN006 OVC011 08/06 A2970 RMK AO2 CS P0000
Temperature: 8.0°C ( 46°F)
Dewpoint: 6.0°C ( 43°F) [RH = 87%]
Pressure (altimeter):29.70 inches Hg (1005.8 mb)
Winds:from the NNW (340 degrees) at 21 MPH (18 knots; 9.3 m/s) gusting to 28 MPH (24 knots; 12.3 m/s)
Visibility: 3 sm ( 5 km)
Ceiling:600 feet AGL
Clouds: broken clouds at 600 feet AGL, overcast cloud deck at 1100 feet AGL
Weather:-RA BR (light rain, mist)
Text:PADU 221456Z 33018G24KT 3SM -RA BR BKN006 OVC011 08/06 A2970 RMK AO2 SLP056 CS P0005 60015 T00780061 50000
Temperature: 7.8°C ( 46°F)
Dewpoint: 6.1°C ( 43°F) [RH = 89%]
Pressure (altimeter):29.70 inches Hg (1005.8 mb) [Sea level pressure: 1005.6 mb]
Winds:from the NNW (330 degrees) at 21 MPH (18 knots; 9.3 m/s) gusting to 28 MPH (24 knots; 12.3 m/s)
Visibility: 3 sm ( 5 km)
Ceiling:600 feet AGL
Clouds: broken clouds at 600 feet AGL, overcast cloud deck at 1100 feet AGL
Weather:-RA BR (light rain, mist)
Text:PADU 221453Z 33011G17KT 3SM -RA BR OVC011 08/06 A2970 RMK AO2 CS P0005
Temperature: 8.0°C ( 46°F)
Dewpoint: 6.0°C ( 43°F) [RH = 87%]
Pressure (altimeter):29.70 inches Hg (1005.8 mb)
Winds:from the NNW (330 degrees) at 13 MPH (11 knots; 5.7 m/s) gusting to 20 MPH (17 knots; 8.7 m/s)
Visibility: 3 sm ( 5 km)
Ceiling:1100 feet AGL
Clouds: overcast cloud deck at 1100 feet AGL
Weather:-RA BR (light rain, mist)
Text:PADU 221356Z 33013G26KT 3SM -RA BR OVC006 08/07 A2970 RMK AO2 PK WND 35027/1316 CIG 003V008 SLP058 CS P0006 T00780067
Temperature: 7.8°C ( 46°F)
Dewpoint: 6.7°C ( 44°F) [RH = 93%]
Pressure (altimeter):29.70 inches Hg (1005.8 mb) [Sea level pressure: 1005.8 mb]
Winds:from the NNW (330 degrees) at 15 MPH (13 knots; 6.7 m/s) gusting to 30 MPH (26 knots; 13.4 m/s)
Visibility: 3 sm ( 5 km)
Ceiling:600 feet AGL
Clouds: overcast cloud deck at 600 feet AGL
Weather:-RA BR (light rain, mist)
Text:PADU 221351Z 30008G24KT 190V350 3SM -RA BR OVC006 08/07 A2970 RMK AO2 PK WND 35027/1316 CIG 003V008 CS P0006
Temperature: 8.0°C ( 46°F)
Dewpoint: 7.0°C ( 45°F) [RH = 93%]
Pressure (altimeter):29.70 inches Hg (1005.8 mb)
Winds:from the WNW (300 degrees) at 9 MPH (8 knots; 4.1 m/s) gusting to 28 MPH (24 knots; 12.3 m/s)
Visibility: 3 sm ( 5 km)
Ceiling:600 feet AGL
Clouds: overcast cloud deck at 600 feet AGL
Weather:-RA BR (light rain, mist)
Text:PADU 221304Z VRB05G19KT 2SM -RA BR OVC004 08/07 A2969 RMK AO2 CIG 003V008 CS P0000
Temperature: 8.0°C ( 46°F)
Dewpoint: 7.0°C ( 45°F) [RH = 93%]
Pressure (altimeter):29.69 inches Hg (1005.5 mb)
Winds:variable direction winds at 6 MPH (5 knots; 2.6 m/s) gusting to 22 MPH (19 knots; 9.8 m/s)
Visibility: 2.00 sm ( 3.22 km)
Ceiling:400 feet AGL
Clouds: overcast cloud deck at 400 feet AGL
Weather:-RA BR (light rain, mist)

TAF for:PADU (Dutch Harbor/Madsen, AK, US) issued at 1740 UTC 22 Sep 2017
Text:PADU 221740Z 2218/2318 35012G27KT P6SM -SHRA SCT008 OVC015
Forecast period:1800 to 2300 UTC 22 September 2017
Forecast type:FROM: standard forecast or significant change
Winds:from the N (350 degrees) at 14 MPH (12 knots; 6.2 m/s) gusting to 31 MPH (27 knots; 13.9 m/s)
Visibility:6 or more sm (10+ km)
Ceiling:1500 feet AGL
Clouds: scattered clouds at 800 feet AGL, overcast cloud deck at 1500 feet AGL
Weather:-SHRA (light rain showers)
Text:FM222300 34015G25KT 6SM BR VCSH BKN015 OVC025
Forecast period:2300 UTC 22 September 2017 to 0600 UTC 23 September 2017
Forecast type:FROM: standard forecast or significant change
Winds:from the NNW (340 degrees) at 17 MPH (15 knots; 7.7 m/s) gusting to 29 MPH (25 knots; 12.9 m/s)
Visibility: 6 sm ( 10 km)
Ceiling:1500 feet AGL
Clouds: broken clouds at 1500 feet AGL, overcast cloud deck at 2500 feet AGL
Weather:BR VCSH (mist, showers in vicinity)
Text:FM230600 33015G25KT 6SM -SHRA BR SCT015 BKN025 OVC050
Forecast period:0600 to 1800 UTC 23 September 2017
Forecast type:FROM: standard forecast or significant change
Winds:from the NNW (330 degrees) at 17 MPH (15 knots; 7.7 m/s) gusting to 29 MPH (25 knots; 12.9 m/s)
Visibility: 6 sm ( 10 km)
Ceiling:2500 feet AGL
Clouds: scattered clouds at 1500 feet AGL, broken clouds at 2500 feet AGL, overcast cloud deck at 5000 feet AGL
Weather:-SHRA BR (light rain showers, mist)